Terminal Aerodrome Forecast
Issued by NWS

Home | Current Version | Previous Version | Text Only | Print | Product List | Glossary Off
Versions: 1 2 3 4 5 6 7 8 9 10 11 12 13 14 15 16

000
FTUS43 KICT 070500
TAFSLN
TAF
KSLN 070520Z 0706/0806 18007KT P6SM SKC
     FM071000 06004KT P6SM SKC
     FM072000 19015G21KT P6SM SCT150
     FM080300 19012KT P6SM VCTS SCT080CB BKN120=

USA.gov is the U.S. government's official web portal to all federal, state and local government web resources and services.